Time;durP1;ratioP1;P1;durP2;ratioP2;P2;SDS_P1;SDS_P2;PMS_P1;PMS_P2;Temp;Humidity;BMP_temperature;BMP_pressure;BME280_temperature;BME280_humidity;BME280_pressure;Samples;Min_cycle;Max_cycle;Signal;HPM_P1;HPM_P2
2023/06/18 00:01:31;;;;;;;3.97;3.17;;;;;;;;;;5055132;28;20025;-79
2023/06/18 00:03:56;;;;;;;3.17;2.88;;;;;;;;;;5055127;28;20078;-79
2023/06/18 00:06:21;;;;;;;4.55;2.90;;;;;;;;;;5055307;28;20028;-78
2023/06/18 00:08:47;;;;;;;3.45;3.03;;;;;;;;;;5055010;28;20029;-79
2023/06/18 00:11:12;;;;;;;5.07;3.22;;;;;;;;;;5055439;28;20605;-79
2023/06/18 00:13:38;;;;;;;4.05;3.20;;;;;;;;;;5073290;28;20028;-79
2023/06/18 00:16:03;;;;;;;3.40;2.85;;;;;;;;;;5055588;28;20379;-79
2023/06/18 00:18:29;;;;;;;3.85;3.13;;;;;;;;;;5073487;28;20103;-79
2023/06/18 00:20:54;;;;;;;5.50;3.45;;;;;;;;;;5021859;28;20036;-79
2023/06/18 00:23:20;;;;;;;3.47;2.85;;;;;;;;;;5072952;28;20367;-78
2023/06/18 00:25:46;;;;;;;3.45;3.15;;;;;;;;;;5055524;28;20029;-79
2023/06/18 00:28:11;;;;;;;4.00;3.60;;;;;;;;;;5073304;28;20043;-79
2023/06/18 00:30:36;;;;;;;3.88;3.10;;;;;;;;;;5072798;28;20036;-79
2023/06/18 00:33:03;;;;;;;5.55;3.75;;;;;;;;;;5072618;28;20044;-79
2023/06/18 00:35:28;;;;;;;4.85;3.72;;;;;;;;;;5072661;28;20032;-79
2023/06/18 00:37:54;;;;;;;3.92;3.15;;;;;;;;;;5054986;28;20082;-79
2023/06/18 00:40:20;;;;;;;5.63;3.40;;;;;;;;;;5072689;28;20495;-78
2023/06/18 00:42:48;;;;;;;4.25;3.03;;;;;;;;;;5072844;28;20029;-78
2023/06/18 00:45:14;;;;;;;3.67;3.30;;;;;;;;;;5038384;28;20032;-78
2023/06/18 00:47:44;;;;;;;4.28;3.20;;;;;;;;;;5072907;28;20171;-78
2023/06/18 00:50:14;;;;;;;3.28;2.97;;;;;;;;;;5038293;28;20508;-78
2023/06/18 00:52:44;;;;;;;4.72;3.80;;;;;;;;;;5057682;28;20028;-78
2023/06/18 00:55:10;;;;;;;3.45;2.97;;;;;;;;;;5042268;28;20027;-78
2023/06/18 00:57:35;;;;;;;4.32;3.05;;;;;;;;;;5058621;28;20028;-78
2023/06/18 01:00:04;;;;;;;4.60;2.92;;;;;;;;;;5058295;28;20025;-78
2023/06/18 01:02:30;;;;;;;4.03;3.30;;;;;;;;;;5058195;28;20029;-78
2023/06/18 01:04:56;;;;;;;4.25;3.10;;;;;;;;;;5076611;28;20029;-78
2023/06/18 01:07:25;;;;;;;4.50;3.42;;;;;;;;;;5058074;28;20029;-78
2023/06/18 01:09:54;;;;;;;3.30;3.00;;;;;;;;;;5076127;28;20028;-78
2023/06/18 01:12:21;;;;;;;5.53;3.50;;;;;;;;;;5075883;28;20032;-78
2023/06/18 01:14:52;;;;;;;3.95;3.20;;;;;;;;;;5058055;28;20036;-78
2023/06/18 01:17:20;;;;;;;3.47;3.17;;;;;;;;;;5057936;28;20130;-78
2023/06/18 01:19:49;;;;;;;3.25;2.85;;;;;;;;;;5075645;28;20119;-78
2023/06/18 01:22:17;;;;;;;3.58;3.28;;;;;;;;;;5058407;28;20051;-78
2023/06/18 01:24:51;;;;;;;3.40;3.10;;;;;;;;;;5075694;28;20099;-78
2023/06/18 01:27:21;;;;;;;;;;;;;;;;;;5058607;28;20028;-78
2023/06/18 01:29:48;;;;;;;3.40;3.00;;;;;;;;;;5041948;28;19913;-79
2023/06/18 01:32:14;;;;;;;5.13;3.17;;;;;;;;;;5057869;28;20028;-79
2023/06/18 01:34:39;;;;;;;3.30;2.90;;;;;;;;;;5075224;28;20555;-78
2023/06/18 01:37:33;;;;;;;3.75;3.10;;;;;;;;;;5075194;28;20025;-78
2023/06/18 01:40:32;;;;;;;3.20;2.90;;;;;;;;;;5057017;28;20085;-78
2023/06/18 01:43:13;;;;;;;3.13;2.83;;;;;;;;;;5075129;28;20107;-78
2023/06/18 01:45:52;;;;;;;3.72;2.85;;;;;;;;;;5057602;28;20021;-79
2023/06/18 01:48:21;;;;;;;4.25;3.03;;;;;;;;;;5057286;28;20446;-78
2023/06/18 01:50:47;;;;;;;3.55;2.90;;;;;;;;;;5056849;28;20454;-78
2023/06/18 01:53:15;;;;;;;3.53;2.78;;;;;;;;;;5057265;28;20029;-78
2023/06/18 01:55:44;;;;;;;4.22;2.97;;;;;;;;;;5057252;28;20445;-78
2023/06/18 01:58:10;;;;;;;6.13;3.08;;;;;;;;;;5057383;28;20048;-78
2023/06/18 02:00:36;;;;;;;3.53;3.10;;;;;;;;;;5074944;28;20461;-79
2023/06/18 02:03:02;;;;;;;3.42;3.13;;;;;;;;;;5056743;28;20040;-78
2023/06/18 02:05:27;;;;;;;3.25;2.95;;;;;;;;;;5057318;28;20115;-79
2023/06/18 02:07:53;;;;;;;3.30;2.90;;;;;;;;;;5075059;28;20108;-78
2023/06/18 02:10:18;;;;;;;3.63;3.17;;;;;;;;;;5075050;28;20031;-78
2023/06/18 02:12:43;;;;;;;3.97;2.97;;;;;;;;;;5074984;28;20035;-79
2023/06/18 02:15:09;;;;;;;5.75;3.38;;;;;;;;;;5056944;28;20127;-78
2023/06/18 02:17:35;;;;;;;6.20;3.10;;;;;;;;;;5074943;28;20460;-78
2023/06/18 02:20:01;;;;;;;3.05;2.75;;;;;;;;;;5056895;28;20078;-78
2023/06/18 02:22:26;;;;;;;3.20;2.90;;;;;;;;;;5074414;28;20056;-79
2023/06/18 02:24:52;;;;;;;4.32;2.95;;;;;;;;;;5057366;28;20036;-78
2023/06/18 02:27:18;;;;;;;3.42;2.83;;;;;;;;;;5074538;28;20032;-78
2023/06/18 02:29:44;;;;;;;3.33;2.65;;;;;;;;;;5074355;28;20047;-78
2023/06/18 02:32:09;;;;;;;3.45;2.80;;;;;;;;;;5074677;28;20043;-78
2023/06/18 02:34:35;;;;;;;3.75;2.92;;;;;;;;;;5074323;28;20025;-78
2023/06/18 02:37:01;;;;;;;3.33;2.88;;;;;;;;;;5039900;28;20052;-78
2023/06/18 02:39:26;;;;;;;3.50;2.92;;;;;;;;;;5057008;28;20531;-78
2023/06/18 02:41:52;;;;;;;4.97;3.08;;;;;;;;;;5056385;28;20044;-78
2023/06/18 02:44:18;;;;;;;5.03;3.03;;;;;;;;;;5056378;28;20021;-78
2023/06/18 02:46:43;;;;;;;4.35;3.00;;;;;;;;;;5074219;28;20104;-78
2023/06/18 02:49:08;;;;;;;2.97;2.67;;;;;;;;;;5039169;28;20115;-78
2023/06/18 02:51:34;;;;;;;2.90;2.65;;;;;;;;;;5074109;28;20108;-79
2023/06/18 02:54:00;;;;;;;3.88;3.05;;;;;;;;;;5074213;28;20035;-78
2023/06/18 02:56:28;;;;;;;3.78;2.88;;;;;;;;;;5073886;28;20028;-79
2023/06/18 02:58:56;;;;;;;3.60;3.20;;;;;;;;;;5040298;28;20021;-78
2023/06/18 03:01:23;;;;;;;3.67;3.20;;;;;;;;;;5074115;28;20103;-78
2023/06/18 03:03:49;;;;;;;3.17;2.88;;;;;;;;;;5055943;28;20535;-79
2023/06/18 03:06:14;;;;;;;4.63;2.92;;;;;;;;;;5055894;28;20036;-78
2023/06/18 03:08:40;;;;;;;3.15;2.83;;;;;;;;;;5038759;28;20052;-78
2023/06/18 03:11:05;;;;;;;3.78;2.90;;;;;;;;;;5055782;28;20032;-78
2023/06/18 03:13:30;;;;;;;3.67;2.72;;;;;;;;;;5073256;28;20081;-78
2023/06/18 03:15:56;;;;;;;4.60;2.85;;;;;;;;;;5055444;28;20423;-78
2023/06/18 03:18:21;;;;;;;4.50;2.92;;;;;;;;;;5074224;28;20032;-78
2023/06/18 03:20:46;;;;;;;3.38;2.63;;;;;;;;;;5073326;28;20034;-78
2023/06/18 03:23:12;;;;;;;4.93;2.80;;;;;;;;;;5055304;28;20078;-78
2023/06/18 03:25:37;;;;;;;3.38;2.83;;;;;;;;;;5073373;28;20460;-79
2023/06/18 03:28:03;;;;;;;3.30;2.80;;;;;;;;;;5046912;28;20058;-79
2023/06/18 03:30:28;;;;;;;4.65;3.00;;;;;;;;;;5055339;28;20052;-79
2023/06/18 03:32:56;;;;;;;3.58;3.00;;;;;;;;;;5073216;28;20039;-79
2023/06/18 03:35:21;;;;;;;8.27;3.00;;;;;;;;;;5055551;28;20029;-79
2023/06/18 03:37:47;;;;;;;4.97;2.95;;;;;;;;;;5073192;28;20040;-79
2023/06/18 03:40:13;;;;;;;3.50;2.83;;;;;;;;;;5055192;28;20076;-79
2023/06/18 03:42:38;;;;;;;3.03;2.72;;;;;;;;;;5073332;28;20036;-79
2023/06/18 03:45:05;;;;;;;4.05;2.97;;;;;;;;;;5073264;28;20032;-79
2023/06/18 03:47:30;;;;;;;3.65;2.85;;;;;;;;;;5073469;28;20359;-78
2023/06/18 03:49:56;;;;;;;4.38;2.90;;;;;;;;;;5054763;28;20044;-78
2023/06/18 03:52:21;;;;;;;3.13;2.83;;;;;;;;;;5073066;28;20047;-78
2023/06/18 03:54:47;;;;;;;3.60;2.88;;;;;;;;;;5073041;28;20035;-78
2023/06/18 03:57:12;;;;;;;4.07;3.00;;;;;;;;;;5073185;28;20043;-78
2023/06/18 03:59:38;;;;;;;3.45;3.05;;;;;;;;;;5072995;28;20025;-78
2023/06/18 04:02:04;;;;;;;5.57;3.20;;;;;;;;;;5073438;28;20032;-77
2023/06/18 04:04:29;;;;;;;5.03;3.42;;;;;;;;;;5038582;28;20040;-78
2023/06/18 04:06:54;;;;;;;3.20;2.90;;;;;;;;;;5055366;28;20056;-79
2023/06/18 04:09:20;;;;;;;4.38;3.13;;;;;;;;;;5073133;28;20035;-79
2023/06/18 04:11:46;;;;;;;3.60;2.90;;;;;;;;;;5073142;28;20028;-78
2023/06/18 04:14:11;;;;;;;7.38;3.30;;;;;;;;;;5055316;28;20487;-78
2023/06/18 04:16:37;;;;;;;4.13;3.33;;;;;;;;;;5038439;28;20037;-78
2023/06/18 04:19:02;;;;;;;4.00;3.30;;;;;;;;;;5074221;28;20056;-78
2023/06/18 04:21:27;;;;;;;4.13;3.30;;;;;;;;;;5054896;28;20032;-78
2023/06/18 04:23:54;;;;;;;3.10;2.80;;;;;;;;;;5073127;28;20024;-78
2023/06/18 04:26:19;;;;;;;4.20;2.80;;;;;;;;;;5057879;28;20077;-78
2023/06/18 04:28:45;;;;;;;5.93;3.50;;;;;;;;;;5042315;28;20123;-78
2023/06/18 04:31:10;;;;;;;4.22;3.08;;;;;;;;;;5077082;28;20379;-78
2023/06/18 04:33:36;;;;;;;5.90;3.42;;;;;;;;;;5077082;28;20035;-78
2023/06/18 04:36:01;;;;;;;3.88;3.38;;;;;;;;;;5076985;28;20473;-78
2023/06/18 04:38:27;;;;;;;3.80;3.33;;;;;;;;;;5076724;28;20031;-80
2023/06/18 04:40:52;;;;;;;5.82;3.20;;;;;;;;;;5076552;28;20086;-79
2023/06/18 04:43:18;;;;;;;3.80;3.05;;;;;;;;;;5058917;28;20029;-80
2023/06/18 04:45:46;;;;;;;3.28;2.97;;;;;;;;;;5077091;28;20028;-78
2023/06/18 04:48:14;;;;;;;3.90;3.35;;;;;;;;;;5058833;28;20062;-78
2023/06/18 04:50:40;;;;;;;4.20;3.30;;;;;;;;;;5058661;28;20098;-78
2023/06/18 04:53:05;;;;;;;3.75;3.38;;;;;;;;;;5058994;28;20417;-78
2023/06/18 04:55:30;;;;;;;3.50;3.20;;;;;;;;;;5042446;28;20037;-78
2023/06/18 04:57:56;;;;;;;4.07;3.33;;;;;;;;;;5058418;28;20052;-78
2023/06/18 05:00:22;;;;;;;5.32;3.30;;;;;;;;;;5041897;28;20029;-78
2023/06/18 05:02:48;;;;;;;4.35;3.53;;;;;;;;;;5058588;28;20103;-78
2023/06/18 05:05:13;;;;;;;4.65;3.58;;;;;;;;;;5058358;28;20129;-76
2023/06/18 05:07:38;;;;;;;4.32;3.20;;;;;;;;;;5076509;28;20039;-78
2023/06/18 05:10:04;;;;;;;3.40;3.10;;;;;;;;;;5075986;28;20426;-78
2023/06/18 05:12:29;;;;;;;3.38;3.08;;;;;;;;;;5058837;28;20032;-77
2023/06/18 05:14:55;;;;;;;7.32;3.10;;;;;;;;;;5076094;28;20479;-78
2023/06/18 05:17:20;;;;;;;7.70;3.40;;;;;;;;;;5041554;28;20439;-78
2023/06/18 05:19:46;;;;;;;7.38;3.47;;;;;;;;;;5041645;28;20035;-78
2023/06/18 05:22:11;;;;;;;6.72;3.35;;;;;;;;;;5076230;28;20048;-77
2023/06/18 05:24:36;;;;;;;6.93;3.30;;;;;;;;;;5076185;28;20038;-76
2023/06/18 05:27:02;;;;;;;7.32;3.50;;;;;;;;;;5057451;28;20036;-77
2023/06/18 05:29:27;;;;;;;3.72;3.22;;;;;;;;;;5075204;28;20032;-77
2023/06/18 05:31:53;;;;;;;5.68;3.15;;;;;;;;;;5075003;28;20025;-77
2023/06/18 05:34:18;;;;;;;4.07;3.38;;;;;;;;;;5040352;28;20510;-78
2023/06/18 05:36:43;;;;;;;5.78;3.35;;;;;;;;;;5039749;28;20025;-77
2023/06/18 05:39:10;;;;;;;3.47;3.17;;;;;;;;;;5040179;28;20020;-77
2023/06/18 05:41:35;;;;;;;5.30;3.20;;;;;;;;;;5074859;28;20047;-76
2023/06/18 05:44:01;;;;;;;3.33;3.00;;;;;;;;;;5040248;28;20432;-78
2023/06/18 05:46:26;;;;;;;3.38;3.05;;;;;;;;;;5074715;28;20029;-77
2023/06/18 05:48:52;;;;;;;8.07;3.53;;;;;;;;;;5056850;28;20103;-77
2023/06/18 05:51:17;;;;;;;6.47;4.30;;;;;;;;;;5074368;28;20457;-77
2023/06/18 05:53:42;;;;;;;6.93;4.65;;;;;;;;;;5056810;28;20112;-77
2023/06/18 05:56:08;;;;;;;7.28;4.30;;;;;;;;;;5056953;28;20086;-77
2023/06/18 05:58:33;;;;;;;7.57;4.57;;;;;;;;;;5056444;28;20378;-78
2023/06/18 06:00:59;;;;;;;7.50;4.15;;;;;;;;;;5039695;28;20036;-78
2023/06/18 06:03:25;;;;;;;10.57;4.65;;;;;;;;;;5056626;28;20107;-78
2023/06/18 06:05:50;;;;;;;6.32;4.18;;;;;;;;;;5074570;28;20082;-78
2023/06/18 06:08:16;;;;;;;10.20;4.72;;;;;;;;;;5056463;28;20395;-78
2023/06/18 06:10:41;;;;;;;6.32;4.45;;;;;;;;;;5056447;28;20028;-77
2023/06/18 06:13:07;;;;;;;5.97;4.10;;;;;;;;;;5056358;28;20538;-76
2023/06/18 06:15:32;;;;;;;10.48;4.43;;;;;;;;;;5074165;28;20024;-77
2023/06/18 06:17:57;;;;;;;10.20;4.78;;;;;;;;;;5074304;28;20032;-78
2023/06/18 06:20:23;;;;;;;11.50;4.18;;;;;;;;;;5039487;28;20060;-77
2023/06/18 06:22:49;;;;;;;8.02;4.47;;;;;;;;;;5056217;28;20031;-77
2023/06/18 06:25:15;;;;;;;6.43;4.25;;;;;;;;;;5073930;28;20029;-78
2023/06/18 06:27:42;;;;;;;7.00;4.53;;;;;;;;;;5055983;28;20032;-77
2023/06/18 06:30:09;;;;;;;5.25;4.22;;;;;;;;;;5039568;28;20047;-78
2023/06/18 06:32:35;;;;;;;8.90;4.78;;;;;;;;;;5039203;28;20471;-78
2023/06/18 06:35:04;;;;;;;9.38;4.65;;;;;;;;;;5056191;28;20037;-77
2023/06/18 06:37:30;;;;;;;5.78;4.07;;;;;;;;;;5073644;28;20028;-78
2023/06/18 06:39:56;;;;;;;5.70;4.00;;;;;;;;;;5073030;28;20471;-78
2023/06/18 06:42:22;;;;;;;5.85;4.13;;;;;;;;;;5073562;28;20179;-78
2023/06/18 06:44:47;;;;;;;9.50;5.00;;;;;;;;;;5038920;28;20042;-78
2023/06/18 06:47:13;;;;;;;6.68;4.28;;;;;;;;;;5055855;28;20044;-78
2023/06/18 06:49:38;;;;;;;6.20;4.18;;;;;;;;;;5072436;28;20049;-78
2023/06/18 06:52:04;;;;;;;10.55;4.07;;;;;;;;;;5055719;28;20029;-76
2023/06/18 06:54:29;;;;;;;7.60;4.40;;;;;;;;;;5073458;28;20024;-79
2023/06/18 06:56:55;;;;;;;10.05;4.25;;;;;;;;;;5022156;28;20039;-78
2023/06/18 06:59:20;;;;;;;9.00;3.95;;;;;;;;;;5063906;28;20033;-78
2023/06/18 07:01:46;;;;;;;9.80;4.03;;;;;;;;;;5033288;28;20437;-79
2023/06/18 07:04:11;;;;;;;9.95;4.60;;;;;;;;;;5033305;28;20105;-79
2023/06/18 07:06:38;;;;;;;32.75;4.47;;;;;;;;;;4998944;28;20038;-78
2023/06/18 07:09:05;;;;;;;11.75;4.68;;;;;;;;;;5033071;28;20036;-77
2023/06/18 07:11:32;;;;;;;7.10;4.40;;;;;;;;;;4999328;28;20556;-78
2023/06/18 07:13:58;;;;;;;7.40;4.32;;;;;;;;;;5033046;28;20033;-78
2023/06/18 07:16:23;;;;;;;8.88;4.25;;;;;;;;;;5033092;28;20468;-79
2023/06/18 07:18:49;;;;;;;7.18;4.03;;;;;;;;;;5033583;28;20041;-79
2023/06/18 07:21:14;;;;;;;8.20;4.43;;;;;;;;;;5033782;28;20061;-79
2023/06/18 07:23:40;;;;;;;7.97;4.18;;;;;;;;;;5016102;28;20060;-79
2023/06/18 07:26:05;;;;;;;9.07;4.38;;;;;;;;;;5015527;28;20045;-79
2023/06/18 07:28:30;;;;;;;7.07;4.40;;;;;;;;;;5033372;28;20025;-79
2023/06/18 07:30:56;;;;;;;9.80;4.60;;;;;;;;;;5032062;28;20473;-79
2023/06/18 07:33:21;;;;;;;11.85;4.72;;;;;;;;;;5033647;28;20026;-78
2023/06/18 07:35:46;;;;;;;8.50;4.47;;;;;;;;;;5033828;28;20392;-79
2023/06/18 07:38:12;;;;;;;10.25;4.43;;;;;;;;;;5032176;28;20060;-78
2023/06/18 07:40:38;;;;;;;10.70;4.60;;;;;;;;;;5033468;28;20481;-78
2023/06/18 07:43:04;;;;;;;12.85;4.70;;;;;;;;;;5033736;28;20028;-77
2023/06/18 07:45:29;;;;;;;8.15;4.53;;;;;;;;;;5015341;28;20021;-78
2023/06/18 07:47:55;;;;;;;6.10;4.22;;;;;;;;;;5032270;28;20034;-78
2023/06/18 07:50:22;;;;;;;16.67;4.65;;;;;;;;;;5055684;28;20052;-78
2023/06/18 07:52:47;;;;;;;10.13;5.30;;;;;;;;;;5039144;28;20046;-78
2023/06/18 07:55:12;;;;;;;8.00;4.65;;;;;;;;;;5074321;28;20536;-78
2023/06/18 07:57:38;;;;;;;10.60;4.97;;;;;;;;;;5039271;28;20025;-78
2023/06/18 08:00:05;;;;;;;9.70;5.03;;;;;;;;;;5073319;28;20102;-78
2023/06/18 08:02:30;;;;;;;5.97;4.70;;;;;;;;;;5039214;28;20078;-78
2023/06/18 08:04:56;;;;;;;9.32;4.72;;;;;;;;;;5074133;28;20024;-78
2023/06/18 08:07:22;;;;;;;5.43;3.92;;;;;;;;;;5068272;28;20024;-78
2023/06/18 08:09:48;;;;;;;4.60;3.90;;;;;;;;;;5075677;28;20052;-77
2023/06/18 08:12:14;;;;;;;8.30;4.60;;;;;;;;;;5076067;28;20031;-79
2023/06/18 08:14:39;;;;;;;5.72;4.35;;;;;;;;;;5093899;28;20475;-78
2023/06/18 08:17:05;;;;;;;10.23;4.63;;;;;;;;;;5075494;28;20085;-79
2023/06/18 08:19:30;;;;;;;15.15;4.70;;;;;;;;;;5058126;28;20032;-78
2023/06/18 08:21:56;;;;;;;13.40;5.50;;;;;;;;;;5093322;28;20471;-78
2023/06/18 08:24:21;;;;;;;12.95;5.85;;;;;;;;;;5075197;28;20032;-78
2023/06/18 08:26:46;;;;;;;15.40;5.43;;;;;;;;;;5093458;28;20103;-78
2023/06/18 08:29:12;;;;;;;7.15;4.85;;;;;;;;;;5075455;28;20036;-78
2023/06/18 08:31:41;;;;;;;13.40;4.85;;;;;;;;;;5058330;28;20028;-78
2023/06/18 08:34:07;;;;;;;18.73;5.13;;;;;;;;;;5093354;28;20173;-78
2023/06/18 08:36:32;;;;;;;11.10;5.03;;;;;;;;;;5075411;28;20501;-79
2023/06/18 08:38:57;;;;;;;14.43;5.53;;;;;;;;;;5093627;28;20478;-79
2023/06/18 08:41:23;;;;;;;9.40;4.70;;;;;;;;;;5113835;28;20036;-79
2023/06/18 08:43:49;;;;;;;12.32;5.68;;;;;;;;;;5095332;28;20019;-79
2023/06/18 08:46:15;;;;;;;7.82;4.93;;;;;;;;;;5113683;28;20039;-78
2023/06/18 08:48:44;;;;;;;15.68;5.53;;;;;;;;;;5113600;28;20031;-78
2023/06/18 08:51:11;;;;;;;10.15;4.90;;;;;;;;;;5095123;28;20414;-78
2023/06/18 08:54:00;;;;;;;7.90;4.88;;;;;;;;;;5113606;28;20031;-78
2023/06/18 08:56:27;;;;;;;9.20;4.47;;;;;;;;;;5094966;28;20016;-78
2023/06/18 08:58:55;;;;;;;9.18;4.45;;;;;;;;;;5077926;28;20058;-78
2023/06/18 09:01:21;;;;;;;9.43;4.65;;;;;;;;;;5095288;28;20023;-79
2023/06/18 09:03:47;;;;;;;6.60;4.18;;;;;;;;;;5078143;28;20028;-77
2023/06/18 09:06:13;;;;;;;13.65;5.35;;;;;;;;;;5095359;28;20023;-77
2023/06/18 09:08:38;;;;;;;8.00;4.53;;;;;;;;;;5094878;28;20106;-78
2023/06/18 09:11:05;;;;;;;8.10;5.00;;;;;;;;;;5095065;28;20038;-77
2023/06/18 09:13:31;;;;;;;12.52;4.30;;;;;;;;;;5080733;28;20019;-78
2023/06/18 09:15:56;;;;;;;7.47;4.70;;;;;;;;;;5116896;28;20359;-76
2023/06/18 09:18:24;;;;;;;7.25;4.63;;;;;;;;;;5099061;28;20466;-77
2023/06/18 09:20:52;;;;;;;9.25;4.53;;;;;;;;;;5098428;28;20035;-77
2023/06/18 09:23:17;;;;;;;8.65;4.63;;;;;;;;;;5116816;28;20027;-77
2023/06/18 09:25:49;;;;;;;6.95;4.20;;;;;;;;;;5116543;28;20035;-78
2023/06/18 09:28:15;;;;;;;10.48;4.45;;;;;;;;;;5098260;28;20108;-78
2023/06/18 09:30:50;;;;;;;6.43;4.07;;;;;;;;;;5098433;28;20438;-77
2023/06/18 09:33:15;;;;;;;7.28;4.03;;;;;;;;;;5116551;28;20413;-78
2023/06/18 09:35:41;;;;;;;6.20;3.88;;;;;;;;;;5098605;28;20054;-78
2023/06/18 09:38:09;;;;;;;6.85;4.13;;;;;;;;;;5081516;28;20032;-77
2023/06/18 09:40:35;;;;;;;6.10;3.75;;;;;;;;;;5081336;28;20027;-77
2023/06/18 09:43:01;;;;;;;6.32;4.03;;;;;;;;;;5098450;28;20501;-78
2023/06/18 09:45:26;;;;;;;8.18;4.43;;;;;;;;;;5097935;28;20111;-77
2023/06/18 09:47:52;;;;;;;8.60;4.45;;;;;;;;;;5098338;28;20040;-77
2023/06/18 09:50:18;;;;;;;7.18;3.80;;;;;;;;;;5116143;28;20085;-77
2023/06/18 09:52:44;;;;;;;6.22;3.70;;;;;;;;;;5080867;28;20444;-79
2023/06/18 09:55:30;;;;;;;5.50;4.18;;;;;;;;;;5098168;28;20019;-79
2023/06/18 09:57:55;;;;;;;7.00;4.07;;;;;;;;;;5097664;28;20030;-79
2023/06/18 10:00:21;;;;;;;6.28;4.20;;;;;;;;;;5115924;28;20027;-79
2023/06/18 10:02:47;;;;;;;4.93;3.75;;;;;;;;;;5080714;28;20045;-79
2023/06/18 10:05:12;;;;;;;4.93;3.35;;;;;;;;;;5115805;28;20039;-78
2023/06/18 10:07:42;;;;;;;5.13;3.65;;;;;;;;;;5115915;28;20066;-77
2023/06/18 10:10:16;;;;;;;6.25;3.70;;;;;;;;;;5080781;28;20034;-78
2023/06/18 10:12:43;;;;;;;6.93;3.85;;;;;;;;;;5080877;28;20023;-80
2023/06/18 10:15:11;;;;;;;6.63;3.63;;;;;;;;;;5115866;28;20032;-80
2023/06/18 10:17:39;;;;;;;5.40;3.83;;;;;;;;;;5116063;28;20522;-80
2023/06/18 10:20:07;;;;;;;4.45;3.50;;;;;;;;;;5097192;28;20016;-80
2023/06/18 10:22:46;;;;;;;5.78;3.65;;;;;;;;;;5063784;28;20042;-79
2023/06/18 10:25:11;;;;;;;4.55;3.38;;;;;;;;;;5097468;28;20027;-79
2023/06/18 10:27:37;;;;;;;5.38;3.88;;;;;;;;;;5097780;28;20031;-79
2023/06/18 10:30:03;;;;;;;5.43;3.50;;;;;;;;;;5115923;28;20123;-78
2023/06/18 10:32:31;;;;;;;3.85;3.40;;;;;;;;;;5115359;28;20490;-80
2023/06/18 10:34:59;;;;;;;3.90;3.28;;;;;;;;;;5080662;28;20031;-79
2023/06/18 10:37:26;;;;;;;5.43;3.35;;;;;;;;;;5096683;28;20450;-80
2023/06/18 10:39:52;;;;;;;4.25;3.50;;;;;;;;;;5097077;28;20435;-79
2023/06/18 10:42:19;;;;;;;4.53;3.45;;;;;;;;;;5115584;28;20023;-80
2023/06/18 10:44:47;;;;;;;6.78;3.58;;;;;;;;;;5115194;28;20119;-80
2023/06/18 10:47:20;;;;;;;7.78;3.78;;;;;;;;;;5097173;28;20108;-80
2023/06/18 10:50:07;;;;;;;5.70;3.50;;;;;;;;;;5098154;28;20100;-81
2023/06/18 10:52:37;;;;;;;7.10;4.18;;;;;;;;;;5115305;28;20085;-79
2023/06/18 10:55:15;;;;;;;6.90;3.42;;;;;;;;;;5079756;28;20066;-80
2023/06/18 10:57:56;;;;;;;5.75;3.67;;;;;;;;;;5081251;28;20036;-79
2023/06/18 11:00:30;;;;;;;5.63;3.78;;;;;;;;;;5114775;28;20505;-79
2023/06/18 11:03:03;;;;;;;8.38;4.47;;;;;;;;;;5097428;28;20055;-77
2023/06/18 11:05:32;;;;;;;;;;;;;;;;;;5115021;28;20023;-77
2023/06/18 11:08:01;;;;;;;5.25;3.58;;;;;;;;;;5114692;28;20430;-78
2023/06/18 11:10:47;;;;;;;6.93;3.70;;;;;;;;;;5079273;28;20162;-79
2023/06/18 11:13:12;;;;;;;9.07;3.67;;;;;;;;;;5096161;28;20054;-78
2023/06/18 11:15:59;;;;;;;8.63;3.70;;;;;;;;;;5096481;28;20047;-78
2023/06/18 11:18:26;;;;;;;5.82;3.40;;;;;;;;;;5114634;28;20458;-77
2023/06/18 11:20:53;;;;;;;6.50;3.70;;;;;;;;;;5114713;28;20432;-79
2023/06/18 11:23:18;;;;;;;5.68;3.83;;;;;;;;;;5096640;28;20020;-77
2023/06/18 11:25:45;;;;;;;5.30;3.85;;;;;;;;;;5096007;28;20046;-79
2023/06/18 11:28:13;;;;;;;4.78;3.65;;;;;;;;;;5095865;28;20034;-78
2023/06/18 11:30:39;;;;;;;5.97;4.25;;;;;;;;;;5096223;28;20024;-79
2023/06/18 11:33:05;;;;;;;5.68;3.78;;;;;;;;;;5096600;28;20126;-79
2023/06/18 11:35:30;;;;;;;5.18;3.90;;;;;;;;;;5113721;28;20144;-78
2023/06/18 11:37:56;;;;;;;6.35;3.67;;;;;;;;;;5114860;28;20074;-78
2023/06/18 11:40:21;;;;;;;8.23;3.53;;;;;;;;;;5114498;28;20379;-78
2023/06/18 11:42:49;;;;;;;6.53;4.30;;;;;;;;;;5114284;28;20070;-78
2023/06/18 11:45:15;;;;;;;6.53;4.00;;;;;;;;;;5114038;28;20031;-77
2023/06/18 11:47:49;;;;;;;5.93;3.97;;;;;;;;;;5114543;28;20075;-77
2023/06/18 11:50:16;;;;;;;4.75;3.80;;;;;;;;;;5096117;28;20080;-76
2023/06/18 11:52:43;;;;;;;6.50;4.60;;;;;;;;;;5095650;28;20027;-77
2023/06/18 11:55:08;;;;;;;7.30;5.63;;;;;;;;;;5095680;28;20425;-79
2023/06/18 11:57:35;;;;;;;8.00;6.18;;;;;;;;;;5095702;28;20027;-78
2023/06/18 12:00:06;;;;;;;7.40;6.57;;;;;;;;;;5078902;28;20023;-78
2023/06/18 12:02:31;;;;;;;14.38;6.20;;;;;;;;;;5096347;28;20024;-78
2023/06/18 12:05:05;;;;;;;7.40;6.10;;;;;;;;;;5096012;28;20489;-77
2023/06/18 12:07:31;;;;;;;8.52;5.93;;;;;;;;;;5099289;28;20028;-78
2023/06/18 12:09:58;;;;;;;6.88;6.07;;;;;;;;;;5118888;28;20077;-78
2023/06/18 12:12:52;;;;;;;9.85;6.07;;;;;;;;;;5080620;28;20446;-78
2023/06/18 12:15:40;;;;;;;8.65;5.72;;;;;;;;;;5117860;28;20027;-79
2023/06/18 12:18:22;;;;;;;8.88;5.60;;;;;;;;;;5080114;28;20450;-78
2023/06/18 12:20:48;;;;;;;8.65;5.60;;;;;;;;;;5082393;28;20027;-78
2023/06/18 12:23:14;;;;;;;5.75;5.18;;;;;;;;;;5079002;28;20081;-78
2023/06/18 12:25:39;;;;;;;7.15;5.78;;;;;;;;;;5080135;28;20350;-78
2023/06/18 12:28:06;;;;;;;11.43;6.00;;;;;;;;;;5079560;28;20031;-78
2023/06/18 12:30:36;;;;;;;10.73;5.53;;;;;;;;;;5078876;28;20043;-78
2023/06/18 12:33:07;;;;;;;8.10;5.80;;;;;;;;;;5095509;28;20478;-78
2023/06/18 12:35:34;;;;;;;8.00;5.20;;;;;;;;;;5095414;28;20035;-78
2023/06/18 12:38:04;;;;;;;6.70;5.15;;;;;;;;;;5095883;28;20031;-78
2023/06/18 12:40:31;;;;;;;6.28;5.00;;;;;;;;;;5095493;28;20024;-77
2023/06/18 12:42:56;;;;;;;6.78;5.20;;;;;;;;;;5095743;28;20069;-78
2023/06/18 12:45:24;;;;;;;5.55;4.85;;;;;;;;;;5095488;28;20486;-78
2023/06/18 12:47:49;;;;;;;6.03;4.75;;;;;;;;;;5116784;28;20024;-78
2023/06/18 12:50:24;;;;;;;6.65;5.05;;;;;;;;;;5087260;28;20043;-77
2023/06/18 12:52:50;;;;;;;6.30;4.13;;;;;;;;;;5076647;28;20500;-77
2023/06/18 12:55:16;;;;;;;4.97;4.55;;;;;;;;;;5077219;28;20056;-78
2023/06/18 12:57:45;;;;;;;10.52;4.85;;;;;;;;;;5058916;28;20033;-78
2023/06/18 13:00:16;;;;;;;6.07;4.53;;;;;;;;;;5041923;28;20025;-77
2023/06/18 13:02:42;;;;;;;4.43;4.03;;;;;;;;;;5076448;28;20391;-77
2023/06/18 13:05:08;;;;;;;5.60;4.40;;;;;;;;;;5076334;28;20039;-78
2023/06/18 13:07:33;;;;;;;6.25;4.50;;;;;;;;;;5058476;28;20025;-77
2023/06/18 13:09:59;;;;;;;8.98;4.57;;;;;;;;;;5058239;28;20083;-77
2023/06/18 13:12:24;;;;;;;4.88;4.30;;;;;;;;;;5076635;28;20024;-77
2023/06/18 13:14:50;;;;;;;5.43;4.57;;;;;;;;;;5058428;28;20029;-77
2023/06/18 13:17:16;;;;;;;4.20;3.80;;;;;;;;;;5058488;28;20051;-77
2023/06/18 13:19:41;;;;;;;7.80;4.60;;;;;;;;;;5041519;28;20560;-77
2023/06/18 13:22:08;;;;;;;5.90;4.28;;;;;;;;;;5058565;28;20028;-78
2023/06/18 13:24:33;;;;;;;4.38;3.97;;;;;;;;;;5041421;28;20111;-77
2023/06/18 13:26:59;;;;;;;5.53;4.20;;;;;;;;;;5058391;28;20048;-76
2023/06/18 13:29:25;;;;;;;7.55;4.20;;;;;;;;;;5058049;28;20527;-77
2023/06/18 13:31:50;;;;;;;4.88;4.15;;;;;;;;;;5075667;28;20032;-77
2023/06/18 13:34:16;;;;;;;5.70;3.85;;;;;;;;;;5076054;28;20063;-77
2023/06/18 13:36:42;;;;;;;5.30;3.92;;;;;;;;;;5041447;28;20032;-77
2023/06/18 13:39:08;;;;;;;4.30;3.90;;;;;;;;;;5057927;28;20476;-77
2023/06/18 13:41:34;;;;;;;4.53;4.13;;;;;;;;;;5075750;28;20127;-77
2023/06/18 13:43:59;;;;;;;5.82;3.83;;;;;;;;;;5024546;28;20025;-78
2023/06/18 13:46:25;;;;;;;4.25;3.83;;;;;;;;;;5057753;28;20024;-78
2023/06/18 13:48:51;;;;;;;4.75;4.22;;;;;;;;;;5057653;28;20182;-77
2023/06/18 13:51:16;;;;;;;5.35;3.95;;;;;;;;;;5074625;28;20139;-77
2023/06/18 13:53:42;;;;;;;5.30;3.95;;;;;;;;;;5078709;28;20048;-78
2023/06/18 13:56:07;;;;;;;3.90;3.60;;;;;;;;;;5061544;28;20505;-78
2023/06/18 13:58:32;;;;;;;5.90;3.67;;;;;;;;;;5095512;28;20165;-78
2023/06/18 14:00:58;;;;;;;5.38;3.50;;;;;;;;;;5061236;28;20032;-77
2023/06/18 14:03:23;;;;;;;5.78;3.78;;;;;;;;;;5095849;28;20031;-78
2023/06/18 14:05:49;;;;;;;4.70;4.05;;;;;;;;;;5077770;28;20031;-77
2023/06/18 14:08:14;;;;;;;4.20;3.70;;;;;;;;;;5077656;28;20031;-77
2023/06/18 14:10:40;;;;;;;4.68;3.40;;;;;;;;;;5097155;28;20058;-78
2023/06/18 14:13:05;;;;;;;3.47;3.17;;;;;;;;;;5078220;28;20042;-78
2023/06/18 14:15:31;;;;;;;4.18;3.78;;;;;;;;;;5097170;28;20082;-78
2023/06/18 14:17:57;;;;;;;6.90;3.92;;;;;;;;;;5080202;28;20114;-77
2023/06/18 14:20:23;;;;;;;4.13;3.72;;;;;;;;;;5095364;28;20032;-77
2023/06/18 14:22:49;;;;;;;5.60;3.65;;;;;;;;;;5095447;28;20025;-77
2023/06/18 14:25:15;;;;;;;5.85;3.75;;;;;;;;;;5076951;28;20489;-77
2023/06/18 14:27:41;;;;;;;6.15;3.60;;;;;;;;;;5077050;28;20028;-77
2023/06/18 14:30:07;;;;;;;7.43;3.58;;;;;;;;;;5094965;28;20031;-77
2023/06/18 14:32:32;;;;;;;9.63;3.75;;;;;;;;;;5076788;28;20039;-77
2023/06/18 14:34:58;;;;;;;4.72;3.30;;;;;;;;;;5076735;28;20036;-77
2023/06/18 14:37:23;;;;;;;5.47;3.30;;;;;;;;;;5076871;28;20126;-78
2023/06/18 14:39:49;;;;;;;5.60;3.70;;;;;;;;;;5094685;28;20046;-77
2023/06/18 14:42:15;;;;;;;4.72;3.33;;;;;;;;;;5076817;28;20035;-77